Kezdőlap
METAR-TAF:

METAR-TAF

Repülőterek :

Tabarka, Tunézia

földrajzi szélesség: 36-57N, földrajzi hosszúság: 008-45E, magasság: 20 m

Jelenlegi meteorológiai megfigyelések

A jelentés 22 perccel ezelõtt készült, 23:00 UTC
Különbözõ irányokból fújó szél 2 kt
Hőmérséklet 33°C
Páratartalom 30%
Légköri nyomás 1011 hPa
Látótávolság 10 km, vagy több
felhőtlen 1500 m magasságban, és nincs gomolyfelhõ

METAR: DTKA 172300Z VRB02KT CAVOK 33/13 Q1011 NOSIG SIROCCO

Idő: 00:22 (23:22 UTC)

Előrejelzés

A jelentés 2 órával és 22 perccel ezelõtt készült, 21:00 UTC
Az előrejelzés 17-én 22 óra UTC és 18-én 07 óra UTC között érvényes
Dél-délkeleti szél 7 kt
Látótávolság 10 km, vagy több
Kevés felhő 2600 lábon

TAF: DTKA 172100Z 1722/1807 16007KT 9999 FEW026

Meteorológiai megfigyelések és előrejelzések több, mint 4000 repülőtéren (METAR és TAF jelentéseket).

A térképen piros és sárga pontok jelzik az elérhető meteorológiai állomásokat.

Mozgassa az egeret a pont fölött, hogy megjelenjen az állomás neve.

Azután kattintson az időjárási megfigyelések és előrejelzések megtekintéséhez.

A térkép megváltoztatása: kattintson a fekete keresztel jelölt zöld gombra ráközelítéshez, a vonallal jelölt zöld gombra távolításhoz, vagy a zöld nyilakra a szomszédos térképek eléréséhez.


METAR-TAF: